Contact Us:
Email: info@sawbill.com
Phone: (218)663-7150
Fax: (218)663-7980
Mail: 4620 Sawbill Trail
Box 2129
Tofte, MN 55615


Powered by
Movable Type 3.15
 
Sawbill Weather History Archives: September 2013
Current Sawbill Weather History | « August 2013 | October 2013 »


Date

High
Temperature

Low
Temperature

Barometric
Pressure

Relative
Humidity 7AM

9 AM
Temperature

Moisture

Snow

9/30/13 64 50 29.76 88% 51 .02"
9/29/13 64 39 29.82 80% 51 0
9/28/13 62 39 29.94 78% 39 .27"
9/27/13 67 54 29.92 77% 57 .02"
9/26/13 63 51 30.00 92% 54 0
9/25/13 66 42 30.03 98% 51 0
9/24/13 65 42 30.02 79% 43 0
9/23/13 60 43 30.02 98% 48 0
9/22/13 50 33 30.02 98% 46 0
9/21/13 50 32 30.03 81% 33 0
9/20/13 56 40 29.94 83% 40 .07"
9/19/13 65 56 29.81 98% 56 1.77"
9/18/13 61 53 29.88 98% 61 .04"
9/17/13 60 40 29.98 98% 53 Trace
9/16/13 58 35 50.18 80% 40 0
9/15/13 53 34 30.26 77% 35 Trace
9/14/13 67 46 30.06 93% 47 .4"
9/13/13 59 38 30.02 90% 46 0
9/12/13 55 38 30.16 79% 38 0
9/11/13 66 51 30.06 75% 51 .14"
9/10/13 67 56 29.94 97% 57 .05"
9/9/13 62 57 29.88 98% 59 1.95"
9/8/13 65 48 29.98 92% 57 .02"
9/7/13 74 47 30.01 76% 48 0
9/6/13 76 61 30.01 92% 65 Trace
9/5/13 68 43 30.02 96% 61 0
9/4/13 63 42 30.18 73% 43 0
9/3/13 71 49 30.08 62% 52 0
9/2/13 59 44 30.02 92% 49 0
9/1/13 67 47 30.02 75% 47 .04"
 


Home I Trip Planning I Rentals and Outfitting I Reservations I Campgrounds I Sawbill Store I Sawbill News I Contact

© 1997 - 2017, Sawbill Canoe Outfitters, Inc. I Privacy Policy